sensor_id;sensor_type;location;lat;lon;timestamp;P1;durP1;ratioP1;P2;durP2;ratioP2
27558;SDS011;15002;52.028;5.670;2023-03-24T00:02:20;7.88;;;3.15;;
27558;SDS011;15002;52.028;5.670;2023-03-24T00:04:46;6.72;;;2.70;;
27558;SDS011;15002;52.028;5.670;2023-03-24T00:07:14;3.38;;;2.17;;
27558;SDS011;15002;52.028;5.670;2023-03-24T00:09:41;4.38;;;2.60;;
27558;SDS011;15002;52.028;5.670;2023-03-24T00:12:08;7.13;;;2.90;;
27558;SDS011;15002;52.028;5.670;2023-03-24T00:14:35;7.93;;;2.88;;
27558;SDS011;15002;52.028;5.670;2023-03-24T00:17:08;4.80;;;2.60;;
27558;SDS011;15002;52.028;5.670;2023-03-24T00:19:34;5.45;;;2.30;;
27558;SDS011;15002;52.028;5.670;2023-03-24T00:22:06;4.68;;;2.75;;
27558;SDS011;15002;52.028;5.670;2023-03-24T00:24:33;5.97;;;3.10;;
27558;SDS011;15002;52.028;5.670;2023-03-24T00:26:59;4.85;;;2.42;;
27558;SDS011;15002;52.028;5.670;2023-03-24T00:29:27;3.97;;;2.70;;
27558;SDS011;15002;52.028;5.670;2023-03-24T00:31:53;5.03;;;2.67;;
27558;SDS011;15002;52.028;5.670;2023-03-24T00:34:19;4.47;;;2.47;;
27558;SDS011;15002;52.028;5.670;2023-03-24T00:36:46;3.88;;;2.63;;
27558;SDS011;15002;52.028;5.670;2023-03-24T00:39:16;4.50;;;2.85;;
27558;SDS011;15002;52.028;5.670;2023-03-24T00:41:44;4.82;;;2.67;;
27558;SDS011;15002;52.028;5.670;2023-03-24T00:44:12;6.28;;;3.05;;
27558;SDS011;15002;52.028;5.670;2023-03-24T00:46:43;5.90;;;3.17;;
27558;SDS011;15002;52.028;5.670;2023-03-24T00:49:10;5.22;;;3.08;;
27558;SDS011;15002;52.028;5.670;2023-03-24T00:51:40;8.93;;;3.00;;
27558;SDS011;15002;52.028;5.670;2023-03-24T00:54:08;6.03;;;3.60;;
27558;SDS011;15002;52.028;5.670;2023-03-24T00:56:37;4.60;;;2.67;;
27558;SDS011;15002;52.028;5.670;2023-03-24T00:59:04;7.05;;;2.92;;
27558;SDS011;15002;52.028;5.670;2023-03-24T01:01:34;8.25;;;2.95;;
27558;SDS011;15002;52.028;5.670;2023-03-24T01:04:03;3.92;;;2.55;;
27558;SDS011;15002;52.028;5.670;2023-03-24T01:06:29;4.40;;;2.85;;
27558;SDS011;15002;52.028;5.670;2023-03-24T01:08:55;4.57;;;2.92;;
27558;SDS011;15002;52.028;5.670;2023-03-24T01:11:21;4.43;;;2.80;;
27558;SDS011;15002;52.028;5.670;2023-03-24T01:13:49;5.60;;;2.72;;
27558;SDS011;15002;52.028;5.670;2023-03-24T01:16:17;6.05;;;2.80;;
27558;SDS011;15002;52.028;5.670;2023-03-24T01:18:43;5.03;;;2.75;;
27558;SDS011;15002;52.028;5.670;2023-03-24T01:21:10;5.95;;;3.20;;
27558;SDS011;15002;52.028;5.670;2023-03-24T01:23:36;4.20;;;2.90;;
27558;SDS011;15002;52.028;5.670;2023-03-24T01:26:07;4.75;;;3.13;;
27558;SDS011;15002;52.028;5.670;2023-03-24T01:28:34;5.68;;;3.08;;
27558;SDS011;15002;52.028;5.670;2023-03-24T01:31:04;4.95;;;2.92;;
27558;SDS011;15002;52.028;5.670;2023-03-24T01:33:31;6.80;;;2.95;;
27558;SDS011;15002;52.028;5.670;2023-03-24T01:35:57;3.25;;;2.30;;
27558;SDS011;15002;52.028;5.670;2023-03-24T01:38:23;5.38;;;2.42;;
27558;SDS011;15002;52.028;5.670;2023-03-24T01:40:49;3.88;;;2.50;;
27558;SDS011;15002;52.028;5.670;2023-03-24T01:43:19;5.13;;;3.20;;
27558;SDS011;15002;52.028;5.670;2023-03-24T01:53:42;4.60;;;3.00;;
27558;SDS011;15002;52.028;5.670;2023-03-24T01:56:14;4.68;;;2.42;;
27558;SDS011;15002;52.028;5.670;2023-03-24T01:58:42;2.85;;;2.47;;
27558;SDS011;15002;52.028;5.670;2023-03-24T02:01:11;4.75;;;2.78;;
27558;SDS011;15002;52.028;5.670;2023-03-24T02:03:37;5.15;;;2.88;;
27558;SDS011;15002;52.028;5.670;2023-03-24T02:06:06;4.10;;;2.92;;
27558;SDS011;15002;52.028;5.670;2023-03-24T02:11:12;4.57;;;2.67;;
27558;SDS011;15002;52.028;5.670;2023-03-24T02:13:38;3.50;;;2.70;;
27558;SDS011;15002;52.028;5.670;2023-03-24T02:30:50;3.50;;;3.08;;
27558;SDS011;15002;52.028;5.670;2023-03-24T02:33:52;4.07;;;2.80;;
27558;SDS011;15002;52.028;5.670;2023-03-24T02:47:32;5.22;;;2.85;;
27558;SDS011;15002;52.028;5.670;2023-03-24T02:50:53;4.65;;;2.92;;
27558;SDS011;15002;52.028;5.670;2023-03-24T02:55:39;4.35;;;3.13;;
27558;SDS011;15002;52.028;5.670;2023-03-24T03:01:03;4.93;;;1.80;;
27558;SDS011;15002;52.028;5.670;2023-03-24T03:03:48;2.83;;;1.38;;
27558;SDS011;15002;52.028;5.670;2023-03-24T03:06:21;4.18;;;1.45;;
27558;SDS011;15002;52.028;5.670;2023-03-24T03:08:57;2.42;;;1.15;;
27558;SDS011;15002;52.028;5.670;2023-03-24T03:11:28;3.30;;;1.42;;
27558;SDS011;15002;52.028;5.670;2023-03-24T03:14:05;3.67;;;1.00;;
27558;SDS011;15002;52.028;5.670;2023-03-24T03:16:44;4.72;;;1.17;;
27558;SDS011;15002;52.028;5.670;2023-03-24T03:19:32;4.43;;;1.13;;
27558;SDS011;15002;52.028;5.670;2023-03-24T03:22:03;2.55;;;0.82;;
27558;SDS011;15002;52.028;5.670;2023-03-24T03:24:34;2.28;;;1.17;;
27558;SDS011;15002;52.028;5.670;2023-03-24T03:27:05;3.30;;;1.13;;
27558;SDS011;15002;52.028;5.670;2023-03-24T03:29:39;6.13;;;1.10;;
27558;SDS011;15002;52.028;5.670;2023-03-24T03:32:09;3.40;;;1.27;;
27558;SDS011;15002;52.028;5.670;2023-03-24T03:34:44;2.25;;;1.00;;
27558;SDS011;15002;52.028;5.670;2023-03-24T03:39:50;3.83;;;0.70;;
27558;SDS011;15002;52.028;5.670;2023-03-24T03:42:23;3.25;;;0.82;;
27558;SDS011;15002;52.028;5.670;2023-03-24T03:44:49;8.55;;;0.80;;
27558;SDS011;15002;52.028;5.670;2023-03-24T03:47:15;5.55;;;0.98;;
27558;SDS011;15002;52.028;5.670;2023-03-24T03:49:43;2.28;;;0.95;;
27558;SDS011;15002;52.028;5.670;2023-03-24T03:52:10;3.88;;;1.10;;
27558;SDS011;15002;52.028;5.670;2023-03-24T03:54:36;2.47;;;0.90;;
27558;SDS011;15002;52.028;5.670;2023-03-24T03:57:04;4.15;;;0.85;;
27558;SDS011;15002;52.028;5.670;2023-03-24T03:59:31;2.97;;;0.90;;
27558;SDS011;15002;52.028;5.670;2023-03-24T04:02:03;7.72;;;0.95;;
27558;SDS011;15002;52.028;5.670;2023-03-24T04:05:17;3.25;;;1.00;;
27558;SDS011;15002;52.028;5.670;2023-03-24T04:10:38;1.98;;;0.90;;
27558;SDS011;15002;52.028;5.670;2023-03-24T04:13:15;5.13;;;1.25;;
27558;SDS011;15002;52.028;5.670;2023-03-24T04:24:34;7.93;;;1.90;;
27558;SDS011;15002;52.028;5.670;2023-03-24T04:27:10;7.50;;;1.73;;
27558;SDS011;15002;52.028;5.670;2023-03-24T04:30:00;7.32;;;1.60;;
27558;SDS011;15002;52.028;5.670;2023-03-24T04:33:16;4.38;;;1.83;;
27558;SDS011;15002;52.028;5.670;2023-03-24T04:35:51;6.95;;;1.90;;
27558;SDS011;15002;52.028;5.670;2023-03-24T04:38:47;8.07;;;1.85;;
27558;SDS011;15002;52.028;5.670;2023-03-24T04:41:17;8.05;;;2.30;;
27558;SDS011;15002;52.028;5.670;2023-03-24T04:43:46;9.18;;;2.15;;
27558;SDS011;15002;52.028;5.670;2023-03-24T04:46:12;12.00;;;2.20;;
27558;SDS011;15002;52.028;5.670;2023-03-24T04:48:42;10.30;;;2.13;;
27558;SDS011;15002;52.028;5.670;2023-03-24T04:51:14;9.60;;;2.20;;
27558;SDS011;15002;52.028;5.670;2023-03-24T04:53:42;10.35;;;2.65;;
27558;SDS011;15002;52.028;5.670;2023-03-24T04:59:00;12.18;;;1.75;;
27558;SDS011;15002;52.028;5.670;2023-03-24T05:01:26;14.63;;;2.33;;
27558;SDS011;15002;52.028;5.670;2023-03-24T05:03:58;14.02;;;2.33;;
27558;SDS011;15002;52.028;5.670;2023-03-24T05:06:24;14.20;;;2.30;;
27558;SDS011;15002;52.028;5.670;2023-03-24T05:08:51;11.30;;;1.73;;
27558;SDS011;15002;52.028;5.670;2023-03-24T05:11:18;14.07;;;2.17;;
27558;SDS011;15002;52.028;5.670;2023-03-24T05:13:44;15.45;;;2.05;;
27558;SDS011;15002;52.028;5.670;2023-03-24T05:16:11;10.27;;;1.70;;
27558;SDS011;15002;52.028;5.670;2023-03-24T05:18:37;12.95;;;2.15;;
27558;SDS011;15002;52.028;5.670;2023-03-24T05:21:03;14.52;;;2.10;;
27558;SDS011;15002;52.028;5.670;2023-03-24T05:23:30;12.35;;;2.08;;
27558;SDS011;15002;52.028;5.670;2023-03-24T05:25:55;14.70;;;2.00;;
27558;SDS011;15002;52.028;5.670;2023-03-24T05:28:21;15.80;;;2.67;;
27558;SDS011;15002;52.028;5.670;2023-03-24T05:30:47;16.90;;;2.80;;
27558;SDS011;15002;52.028;5.670;2023-03-24T05:33:12;13.88;;;2.40;;
27558;SDS011;15002;52.028;5.670;2023-03-24T05:35:38;9.23;;;1.92;;
27558;SDS011;15002;52.028;5.670;2023-03-24T05:38:04;12.02;;;2.33;;
27558;SDS011;15002;52.028;5.670;2023-03-24T05:40:29;9.13;;;1.98;;
27558;SDS011;15002;52.028;5.670;2023-03-24T05:42:55;12.93;;;2.42;;
27558;SDS011;15002;52.028;5.670;2023-03-24T05:45:20;9.70;;;2.47;;
27558;SDS011;15002;52.028;5.670;2023-03-24T05:47:46;14.00;;;2.58;;
27558;SDS011;15002;52.028;5.670;2023-03-24T05:50:12;12.85;;;2.42;;
27558;SDS011;15002;52.028;5.670;2023-03-24T05:52:38;14.98;;;2.72;;
27558;SDS011;15002;52.028;5.670;2023-03-24T05:55:05;15.38;;;2.63;;
27558;SDS011;15002;52.028;5.670;2023-03-24T05:57:31;10.93;;;3.05;;
27558;SDS011;15002;52.028;5.670;2023-03-24T05:59:58;13.50;;;2.95;;
27558;SDS011;15002;52.028;5.670;2023-03-24T06:02:24;17.38;;;3.17;;
27558;SDS011;15002;52.028;5.670;2023-03-24T06:04:50;13.82;;;3.33;;
27558;SDS011;15002;52.028;5.670;2023-03-24T06:07:16;10.65;;;3.03;;
27558;SDS011;15002;52.028;5.670;2023-03-24T06:09:42;9.70;;;3.08;;
27558;SDS011;15002;52.028;5.670;2023-03-24T06:12:11;14.02;;;3.70;;
27558;SDS011;15002;52.028;5.670;2023-03-24T06:14:38;13.25;;;2.88;;
27558;SDS011;15002;52.028;5.670;2023-03-24T06:17:06;13.95;;;3.10;;
27558;SDS011;15002;52.028;5.670;2023-03-24T06:19:32;12.85;;;3.22;;
27558;SDS011;15002;52.028;5.670;2023-03-24T06:21:58;17.58;;;3.38;;
27558;SDS011;15002;52.028;5.670;2023-03-24T06:24:27;14.23;;;3.53;;
27558;SDS011;15002;52.028;5.670;2023-03-24T06:26:53;12.60;;;3.20;;
27558;SDS011;15002;52.028;5.670;2023-03-24T06:29:23;15.15;;;3.78;;
27558;SDS011;15002;52.028;5.670;2023-03-24T06:31:48;10.80;;;2.88;;
27558;SDS011;15002;52.028;5.670;2023-03-24T06:34:14;15.30;;;3.33;;
27558;SDS011;15002;52.028;5.670;2023-03-24T06:36:40;18.67;;;3.10;;
27558;SDS011;15002;52.028;5.670;2023-03-24T06:39:06;16.58;;;3.00;;
27558;SDS011;15002;52.028;5.670;2023-03-24T06:41:32;13.43;;;3.20;;
27558;SDS011;15002;52.028;5.670;2023-03-24T06:43:58;11.93;;;3.08;;
27558;SDS011;15002;52.028;5.670;2023-03-24T06:46:24;9.77;;;2.88;;
27558;SDS011;15002;52.028;5.670;2023-03-24T06:48:49;14.27;;;3.22;;
27558;SDS011;15002;52.028;5.670;2023-03-24T06:51:15;11.25;;;2.65;;
27558;SDS011;15002;52.028;5.670;2023-03-24T06:53:41;19.92;;;3.15;;
27558;SDS011;15002;52.028;5.670;2023-03-24T06:56:09;16.98;;;3.20;;
27558;SDS011;15002;52.028;5.670;2023-03-24T06:58:40;14.77;;;3.38;;
27558;SDS011;15002;52.028;5.670;2023-03-24T07:01:06;15.88;;;3.28;;
27558;SDS011;15002;52.028;5.670;2023-03-24T07:03:32;11.30;;;2.85;;
27558;SDS011;15002;52.028;5.670;2023-03-24T07:05:58;14.23;;;3.10;;
27558;SDS011;15002;52.028;5.670;2023-03-24T07:08:24;11.75;;;2.80;;
27558;SDS011;15002;52.028;5.670;2023-03-24T07:10:50;13.80;;;3.13;;
27558;SDS011;15002;52.028;5.670;2023-03-24T07:13:15;15.85;;;3.28;;
27558;SDS011;15002;52.028;5.670;2023-03-24T07:15:41;11.73;;;2.47;;
27558;SDS011;15002;52.028;5.670;2023-03-24T07:18:07;11.93;;;2.90;;
27558;SDS011;15002;52.028;5.670;2023-03-24T07:20:32;12.88;;;2.80;;
27558;SDS011;15002;52.028;5.670;2023-03-24T07:22:58;11.02;;;2.63;;
27558;SDS011;15002;52.028;5.670;2023-03-24T07:25:24;10.15;;;2.45;;
27558;SDS011;15002;52.028;5.670;2023-03-24T07:27:53;17.67;;;2.70;;
27558;SDS011;15002;52.028;5.670;2023-03-24T07:30:20;12.27;;;2.77;;
27558;SDS011;15002;52.028;5.670;2023-03-24T07:32:47;16.70;;;3.13;;
27558;SDS011;15002;52.028;5.670;2023-03-24T07:35:13;14.30;;;3.35;;
27558;SDS011;15002;52.028;5.670;2023-03-24T07:37:40;11.45;;;2.63;;
27558;SDS011;15002;52.028;5.670;2023-03-24T07:40:07;13.95;;;2.97;;
27558;SDS011;15002;52.028;5.670;2023-03-24T07:42:40;8.48;;;2.53;;
27558;SDS011;15002;52.028;5.670;2023-03-24T07:45:07;14.80;;;2.70;;
27558;SDS011;15002;52.028;5.670;2023-03-24T07:47:36;14.23;;;2.67;;
27558;SDS011;15002;52.028;5.670;2023-03-24T07:50:03;14.18;;;2.78;;
27558;SDS011;15002;52.028;5.670;2023-03-24T07:52:37;10.95;;;2.85;;
27558;SDS011;15002;52.028;5.670;2023-03-24T07:55:05;10.95;;;2.47;;
27558;SDS011;15002;52.028;5.670;2023-03-24T07:57:36;12.88;;;2.63;;
27558;SDS011;15002;52.028;5.670;2023-03-24T08:00:05;10.70;;;2.50;;
27558;SDS011;15002;52.028;5.670;2023-03-24T08:02:42;11.10;;;2.72;;
27558;SDS011;15002;52.028;5.670;2023-03-24T08:05:09;10.85;;;2.28;;
27558;SDS011;15002;52.028;5.670;2023-03-24T08:07:42;8.63;;;2.30;;
27558;SDS011;15002;52.028;5.670;2023-03-24T08:10:10;9.20;;;2.63;;
27558;SDS011;15002;52.028;5.670;2023-03-24T08:12:36;12.55;;;2.55;;
27558;SDS011;15002;52.028;5.670;2023-03-24T08:15:03;11.80;;;2.55;;
27558;SDS011;15002;52.028;5.670;2023-03-24T08:17:30;10.07;;;2.63;;
27558;SDS011;15002;52.028;5.670;2023-03-24T08:19:56;17.45;;;2.40;;
27558;SDS011;15002;52.028;5.670;2023-03-24T08:22:21;10.55;;;3.28;;
27558;SDS011;15002;52.028;5.670;2023-03-24T08:24:47;13.55;;;2.40;;
27558;SDS011;15002;52.028;5.670;2023-03-24T08:27:13;11.10;;;2.45;;
27558;SDS011;15002;52.028;5.670;2023-03-24T08:29:38;10.63;;;2.60;;
27558;SDS011;15002;52.028;5.670;2023-03-24T08:32:04;12.82;;;2.97;;
27558;SDS011;15002;52.028;5.670;2023-03-24T08:34:30;11.02;;;3.00;;
27558;SDS011;15002;52.028;5.670;2023-03-24T08:36:55;7.65;;;2.00;;
27558;SDS011;15002;52.028;5.670;2023-03-24T08:39:21;11.90;;;3.33;;
27558;SDS011;15002;52.028;5.670;2023-03-24T08:41:48;15.65;;;3.28;;
27558;SDS011;15002;52.028;5.670;2023-03-24T08:44:14;13.70;;;2.55;;
27558;SDS011;15002;52.028;5.670;2023-03-24T08:46:41;8.35;;;2.78;;
27558;SDS011;15002;52.028;5.670;2023-03-24T08:49:06;9.30;;;3.08;;
27558;SDS011;15002;52.028;5.670;2023-03-24T08:51:32;8.80;;;2.47;;
27558;SDS011;15002;52.028;5.670;2023-03-24T08:53:58;12.88;;;2.80;;
27558;SDS011;15002;52.028;5.670;2023-03-24T08:56:25;11.80;;;2.78;;
27558;SDS011;15002;52.028;5.670;2023-03-24T08:58:51;9.45;;;2.20;;
27558;SDS011;15002;52.028;5.670;2023-03-24T09:01:18;11.40;;;2.42;;
27558;SDS011;15002;52.028;5.670;2023-03-24T09:03:47;6.60;;;2.50;;
27558;SDS011;15002;52.028;5.670;2023-03-24T09:06:13;12.77;;;2.75;;
27558;SDS011;15002;52.028;5.670;2023-03-24T09:08:39;14.93;;;2.67;;
27558;SDS011;15002;52.028;5.670;2023-03-24T09:11:05;11.63;;;2.15;;
27558;SDS011;15002;52.028;5.670;2023-03-24T09:13:31;12.73;;;2.35;;
27558;SDS011;15002;52.028;5.670;2023-03-24T09:15:59;14.07;;;2.97;;
27558;SDS011;15002;52.028;5.670;2023-03-24T09:18:26;11.00;;;2.42;;
27558;SDS011;15002;52.028;5.670;2023-03-24T09:20:52;13.45;;;2.47;;
27558;SDS011;15002;52.028;5.670;2023-03-24T09:23:18;7.35;;;2.28;;
27558;SDS011;15002;52.028;5.670;2023-03-24T09:25:47;12.35;;;2.50;;
27558;SDS011;15002;52.028;5.670;2023-03-24T09:28:13;8.98;;;2.10;;
27558;SDS011;15002;52.028;5.670;2023-03-24T09:30:40;12.07;;;2.50;;
27558;SDS011;15002;52.028;5.670;2023-03-24T09:33:06;6.60;;;1.77;;
27558;SDS011;15002;52.028;5.670;2023-03-24T09:35:32;6.97;;;1.80;;
27558;SDS011;15002;52.028;5.670;2023-03-24T09:37:58;6.30;;;1.90;;
27558;SDS011;15002;52.028;5.670;2023-03-24T09:40:24;9.95;;;2.20;;
27558;SDS011;15002;52.028;5.670;2023-03-24T09:42:57;8.27;;;2.05;;
27558;SDS011;15002;52.028;5.670;2023-03-24T09:45:26;6.97;;;2.55;;
27558;SDS011;15002;52.028;5.670;2023-03-24T09:47:58;9.23;;;2.25;;
27558;SDS011;15002;52.028;5.670;2023-03-24T09:50:48;12.35;;;2.50;;
27558;SDS011;15002;52.028;5.670;2023-03-24T09:53:23;10.55;;;2.15;;
27558;SDS011;15002;52.028;5.670;2023-03-24T09:56:00;8.45;;;2.20;;
27558;SDS011;15002;52.028;5.670;2023-03-24T09:58:34;10.70;;;2.33;;
27558;SDS011;15002;52.028;5.670;2023-03-24T10:01:00;6.72;;;1.70;;
27558;SDS011;15002;52.028;5.670;2023-03-24T10:03:27;9.70;;;2.05;;
27558;SDS011;15002;52.028;5.670;2023-03-24T10:06:04;9.02;;;1.85;;
27558;SDS011;15002;52.028;5.670;2023-03-24T10:08:41;11.20;;;1.75;;
27558;SDS011;15002;52.028;5.670;2023-03-24T10:11:24;11.43;;;1.90;;
27558;SDS011;15002;52.028;5.670;2023-03-24T10:14:02;6.30;;;1.77;;
27558;SDS011;15002;52.028;5.670;2023-03-24T10:19:45;6.35;;;1.60;;
27558;SDS011;15002;52.028;5.670;2023-03-24T10:25:48;9.05;;;2.35;;
27558;SDS011;15002;52.028;5.670;2023-03-24T10:31:30;10.02;;;2.15;;
27558;SDS011;15002;52.028;5.670;2023-03-24T10:33:58;7.97;;;2.20;;
27558;SDS011;15002;52.028;5.670;2023-03-24T10:36:25;6.82;;;1.58;;
27558;SDS011;15002;52.028;5.670;2023-03-24T10:38:53;9.98;;;2.00;;
27558;SDS011;15002;52.028;5.670;2023-03-24T10:43:46;8.63;;;2.10;;
27558;SDS011;15002;52.028;5.670;2023-03-24T10:46:15;8.25;;;2.08;;
27558;SDS011;15002;52.028;5.670;2023-03-24T10:48:45;12.27;;;2.60;;
27558;SDS011;15002;52.028;5.670;2023-03-24T10:51:13;8.68;;;1.95;;
27558;SDS011;15002;52.028;5.670;2023-03-24T10:53:40;9.27;;;2.20;;
27558;SDS011;15002;52.028;5.670;2023-03-24T10:56:06;11.40;;;2.25;;
27558;SDS011;15002;52.028;5.670;2023-03-24T10:58:39;12.05;;;2.55;;
27558;SDS011;15002;52.028;5.670;2023-03-24T11:01:09;8.55;;;1.98;;
27558;SDS011;15002;52.028;5.670;2023-03-24T11:03:50;8.75;;;1.70;;
27558;SDS011;15002;52.028;5.670;2023-03-24T11:06:17;7.57;;;1.90;;
27558;SDS011;15002;52.028;5.670;2023-03-24T11:08:45;9.52;;;1.92;;
27558;SDS011;15002;52.028;5.670;2023-03-24T11:13:55;5.80;;;2.10;;
27558;SDS011;15002;52.028;5.670;2023-03-24T11:19:16;9.82;;;2.58;;
27558;SDS011;15002;52.028;5.670;2023-03-24T11:21:42;6.82;;;2.33;;
27558;SDS011;15002;52.028;5.670;2023-03-24T11:24:11;6.18;;;1.70;;
27558;SDS011;15002;52.028;5.670;2023-03-24T11:26:43;7.82;;;1.63;;
27558;SDS011;15002;52.028;5.670;2023-03-24T11:29:28;6.65;;;1.48;;
27558;SDS011;15002;52.028;5.670;2023-03-24T11:31:57;5.57;;;1.02;;
27558;SDS011;15002;52.028;5.670;2023-03-24T11:34:33;4.35;;;0.85;;
27558;SDS011;15002;52.028;5.670;2023-03-24T11:37:26;5.45;;;1.02;;
27558;SDS011;15002;52.028;5.670;2023-03-24T11:42:52;3.65;;;1.00;;
27558;SDS011;15002;52.028;5.670;2023-03-24T11:50:37;5.68;;;1.58;;
27558;SDS011;15002;52.028;5.670;2023-03-24T11:53:14;11.32;;;1.85;;
27558;SDS011;15002;52.028;5.670;2023-03-24T11:56:06;7.50;;;1.77;;
27558;SDS011;15002;52.028;5.670;2023-03-24T11:59:26;7.35;;;1.45;;
27558;SDS011;15002;52.028;5.670;2023-03-24T12:01:55;6.35;;;1.40;;
27558;SDS011;15002;52.028;5.670;2023-03-24T12:20:20;5.05;;;1.33;;
27558;SDS011;15002;52.028;5.670;2023-03-24T12:25:58;4.22;;;1.35;;
27558;SDS011;15002;52.028;5.670;2023-03-24T12:28:50;5.43;;;1.38;;
27558;SDS011;15002;52.028;5.670;2023-03-24T12:36:59;5.63;;;1.38;;
27558;SDS011;15002;52.028;5.670;2023-03-24T12:39:49;5.38;;;1.75;;
27558;SDS011;15002;52.028;5.670;2023-03-24T12:42:18;3.38;;;0.95;;
27558;SDS011;15002;52.028;5.670;2023-03-24T12:44:48;5.80;;;1.65;;
27558;SDS011;15002;52.028;5.670;2023-03-24T12:56:38;8.57;;;2.05;;
27558;SDS011;15002;52.028;5.670;2023-03-24T12:59:11;6.07;;;1.42;;
27558;SDS011;15002;52.028;5.670;2023-03-24T13:01:41;7.38;;;2.13;;
27558;SDS011;15002;52.028;5.670;2023-03-24T13:04:24;6.88;;;2.58;;
27558;SDS011;15002;52.028;5.670;2023-03-24T13:07:18;6.45;;;1.88;;
27558;SDS011;15002;52.028;5.670;2023-03-24T13:09:45;4.22;;;2.20;;
27558;SDS011;15002;52.028;5.670;2023-03-24T13:15:12;4.85;;;2.83;;
27558;SDS011;15002;52.028;5.670;2023-03-24T13:20:19;8.63;;;3.10;;
27558;SDS011;15002;52.028;5.670;2023-03-24T13:29:11;7.28;;;2.47;;
27558;SDS011;15002;52.028;5.670;2023-03-24T13:32:06;4.70;;;2.03;;
27558;SDS011;15002;52.028;5.670;2023-03-24T13:34:54;7.72;;;1.73;;
27558;SDS011;15002;52.028;5.670;2023-03-24T13:37:50;4.35;;;1.70;;
27558;SDS011;15002;52.028;5.670;2023-03-24T13:40:37;8.63;;;2.03;;
27558;SDS011;15002;52.028;5.670;2023-03-24T13:43:11;7.78;;;2.20;;
27558;SDS011;15002;52.028;5.670;2023-03-24T13:45:46;6.38;;;1.77;;
27558;SDS011;15002;52.028;5.670;2023-03-24T13:51:15;5.55;;;2.03;;
27558;SDS011;15002;52.028;5.670;2023-03-24T13:56:35;7.88;;;1.95;;
27558;SDS011;15002;52.028;5.670;2023-03-24T14:05:01;7.28;;;1.60;;
27558;SDS011;15002;52.028;5.670;2023-03-24T14:07:46;6.20;;;1.48;;
27558;SDS011;15002;52.028;5.670;2023-03-24T14:17:51;5.45;;;2.05;;
27558;SDS011;15002;52.028;5.670;2023-03-24T14:20:23;4.47;;;1.20;;
27558;SDS011;15002;52.028;5.670;2023-03-24T14:22:52;5.20;;;1.45;;
27558;SDS011;15002;52.028;5.670;2023-03-24T14:25:23;5.03;;;1.40;;
27558;SDS011;15002;52.028;5.670;2023-03-24T14:28:31;2.72;;;0.77;;
27558;SDS011;15002;52.028;5.670;2023-03-24T14:30:59;4.18;;;1.08;;
27558;SDS011;15002;52.028;5.670;2023-03-24T14:33:41;5.82;;;1.02;;
27558;SDS011;15002;52.028;5.670;2023-03-24T14:44:53;2.20;;;0.83;;
27558;SDS011;15002;52.028;5.670;2023-03-24T14:47:25;2.53;;;0.93;;
27558;SDS011;15002;52.028;5.670;2023-03-24T14:49:54;2.33;;;0.95;;
27558;SDS011;15002;52.028;5.670;2023-03-24T14:52:22;3.45;;;0.60;;
27558;SDS011;15002;52.028;5.670;2023-03-24T14:54:58;2.53;;;0.70;;
27558;SDS011;15002;52.028;5.670;2023-03-24T14:57:25;1.65;;;0.60;;
27558;SDS011;15002;52.028;5.670;2023-03-24T15:02:39;2.63;;;0.65;;
27558;SDS011;15002;52.028;5.670;2023-03-24T15:05:14;1.88;;;0.52;;
27558;SDS011;15002;52.028;5.670;2023-03-24T15:07:44;1.35;;;0.40;;
27558;SDS011;15002;52.028;5.670;2023-03-24T15:10:21;1.67;;;0.38;;
27558;SDS011;15002;52.028;5.670;2023-03-24T15:12:47;1.77;;;0.40;;
27558;SDS011;15002;52.028;5.670;2023-03-24T15:15:15;1.60;;;0.50;;
27558;SDS011;15002;52.028;5.670;2023-03-24T15:17:42;4.88;;;0.73;;
27558;SDS011;15002;52.028;5.670;2023-03-24T15:20:19;3.00;;;0.90;;
27558;SDS011;15002;52.028;5.670;2023-03-24T15:22:45;1.77;;;0.60;;
27558;SDS011;15002;52.028;5.670;2023-03-24T15:25:12;3.33;;;0.80;;
27558;SDS011;15002;52.028;5.670;2023-03-24T15:27:39;2.65;;;0.93;;
27558;SDS011;15002;52.028;5.670;2023-03-24T15:30:12;3.88;;;1.25;;
27558;SDS011;15002;52.028;5.670;2023-03-24T15:32:38;3.38;;;0.70;;
27558;SDS011;15002;52.028;5.670;2023-03-24T15:35:14;3.22;;;0.85;;
27558;SDS011;15002;52.028;5.670;2023-03-24T15:37:44;5.53;;;0.93;;
27558;SDS011;15002;52.028;5.670;2023-03-24T15:42:49;5.85;;;1.30;;
27558;SDS011;15002;52.028;5.670;2023-03-24T15:45:33;4.97;;;1.05;;
27558;SDS011;15002;52.028;5.670;2023-03-24T15:48:07;4.38;;;1.23;;
27558;SDS011;15002;52.028;5.670;2023-03-24T15:51:00;8.50;;;1.40;;
27558;SDS011;15002;52.028;5.670;2023-03-24T15:53:28;3.50;;;0.98;;
27558;SDS011;15002;52.028;5.670;2023-03-24T15:58:54;4.97;;;1.50;;
27558;SDS011;15002;52.028;5.670;2023-03-24T16:01:29;4.40;;;1.55;;
27558;SDS011;15002;52.028;5.670;2023-03-24T16:06:32;8.05;;;1.48;;
27558;SDS011;15002;52.028;5.670;2023-03-24T16:09:06;4.57;;;1.35;;
27558;SDS011;15002;52.028;5.670;2023-03-24T16:11:37;8.13;;;1.65;;
27558;SDS011;15002;52.028;5.670;2023-03-24T16:14:19;6.50;;;1.65;;
27558;SDS011;15002;52.028;5.670;2023-03-24T16:16:47;5.93;;;1.25;;
27558;SDS011;15002;52.028;5.670;2023-03-24T16:19:13;6.35;;;1.85;;
27558;SDS011;15002;52.028;5.670;2023-03-24T16:21:39;3.92;;;1.30;;
27558;SDS011;15002;52.028;5.670;2023-03-24T16:24:04;8.90;;;1.67;;
27558;SDS011;15002;52.028;5.670;2023-03-24T16:26:31;5.05;;;1.75;;
27558;SDS011;15002;52.028;5.670;2023-03-24T16:28:59;7.22;;;2.15;;
27558;SDS011;15002;52.028;5.670;2023-03-24T16:31:37;8.68;;;2.20;;
27558;SDS011;15002;52.028;5.670;2023-03-24T16:34:02;9.63;;;2.10;;
27558;SDS011;15002;52.028;5.670;2023-03-24T16:36:28;5.25;;;1.23;;
27558;SDS011;15002;52.028;5.670;2023-03-24T16:38:55;6.82;;;1.63;;
27558;SDS011;15002;52.028;5.670;2023-03-24T16:41:22;8.43;;;2.35;;
27558;SDS011;15002;52.028;5.670;2023-03-24T16:43:48;12.40;;;2.10;;
27558;SDS011;15002;52.028;5.670;2023-03-24T16:46:14;5.70;;;1.80;;
27558;SDS011;15002;52.028;5.670;2023-03-24T16:48:42;7.75;;;2.58;;
27558;SDS011;15002;52.028;5.670;2023-03-24T16:51:12;10.30;;;2.50;;
27558;SDS011;15002;52.028;5.670;2023-03-24T16:53:39;12.00;;;4.28;;
27558;SDS011;15002;52.028;5.670;2023-03-24T16:56:06;6.40;;;2.25;;
27558;SDS011;15002;52.028;5.670;2023-03-24T16:58:32;8.13;;;2.40;;
27558;SDS011;15002;52.028;5.670;2023-03-24T17:00:58;9.10;;;2.90;;
27558;SDS011;15002;52.028;5.670;2023-03-24T17:03:25;8.07;;;3.08;;
27558;SDS011;15002;52.028;5.670;2023-03-24T17:05:55;8.18;;;2.70;;
27558;SDS011;15002;52.028;5.670;2023-03-24T17:08:22;6.38;;;3.15;;
27558;SDS011;15002;52.028;5.670;2023-03-24T17:10:48;7.07;;;3.22;;
27558;SDS011;15002;52.028;5.670;2023-03-24T17:13:17;9.00;;;3.17;;
27558;SDS011;15002;52.028;5.670;2023-03-24T17:15:45;6.82;;;3.10;;
27558;SDS011;15002;52.028;5.670;2023-03-24T17:18:11;6.22;;;2.50;;
27558;SDS011;15002;52.028;5.670;2023-03-24T17:20:36;6.15;;;2.58;;
27558;SDS011;15002;52.028;5.670;2023-03-24T17:23:04;6.72;;;2.65;;
27558;SDS011;15002;52.028;5.670;2023-03-24T17:25:32;8.73;;;3.92;;
27558;SDS011;15002;52.028;5.670;2023-03-24T17:27:57;8.60;;;2.60;;
27558;SDS011;15002;52.028;5.670;2023-03-24T17:30:24;4.90;;;2.22;;
27558;SDS011;15002;52.028;5.670;2023-03-24T17:32:51;9.10;;;2.40;;
27558;SDS011;15002;52.028;5.670;2023-03-24T17:35:19;5.75;;;2.83;;
27558;SDS011;15002;52.028;5.670;2023-03-24T17:37:47;9.00;;;2.80;;
27558;SDS011;15002;52.028;5.670;2023-03-24T17:40:14;6.13;;;3.97;;
27558;SDS011;15002;52.028;5.670;2023-03-24T17:42:42;8.00;;;2.67;;
27558;SDS011;15002;52.028;5.670;2023-03-24T17:45:09;5.50;;;2.70;;
27558;SDS011;15002;52.028;5.670;2023-03-24T17:47:37;5.13;;;2.15;;
27558;SDS011;15002;52.028;5.670;2023-03-24T17:50:04;5.10;;;2.30;;
27558;SDS011;15002;52.028;5.670;2023-03-24T17:52:34;6.60;;;3.08;;